Time;durP1;ratioP1;P1;durP2;ratioP2;P2;SDS_P1;SDS_P2;PMS_P1;PMS_P2;Temp;Humidity;BMP_temperature;BMP_pressure;BME280_temperature;BME280_humidity;BME280_pressure;Samples;Min_cycle;Max_cycle;Signal;HPM_P1;HPM_P2
2021/09/15 00:02:16;;;;;;;1071.88;969.15;;;;;;;;;;5023429;28;20030;-79
2021/09/15 00:04:42;;;;;;;1072.97;969.85;;;;;;;;;;5004777;28;20117;-79
2021/09/15 00:07:08;;;;;;;1071.15;968.08;;;;;;;;;;5006379;28;20029;-79
2021/09/15 00:09:34;;;;;;;1070.55;967.70;;;;;;;;;;5004867;28;20034;-79
2021/09/15 00:12:00;;;;;;;1075.05;971.53;;;;;;;;;;4998659;28;20467;-79
2021/09/15 00:14:26;;;;;;;1074.65;971.38;;;;;;;;;;5007464;28;20029;-79
2021/09/15 00:16:52;;;;;;;1070.63;967.72;;;;;;;;;;5005975;28;20049;-79
2021/09/15 00:19:18;;;;;;;1065.57;963.00;;;;;;;;;;5005783;28;20026;-80
2021/09/15 00:21:44;;;;;;;1077.03;973.65;;;;;;;;;;5005025;28;20036;-79
2021/09/15 00:24:10;;;;;;;1072.05;969.15;;;;;;;;;;5006356;28;20013;-80
2021/09/15 00:26:36;;;;;;;1070.05;967.17;;;;;;;;;;5005902;28;20033;-79
2021/09/15 00:29:02;;;;;;;1064.10;961.40;;;;;;;;;;5009306;28;20026;-79
2021/09/15 00:31:28;;;;;;;1065.75;962.97;;;;;;;;;;5001710;28;20579;-79
2021/09/15 00:33:54;;;;;;;1061.95;959.38;;;;;;;;;;5006084;28;20100;-79
2021/09/15 00:36:19;;;;;;;1064.45;961.40;;;;;;;;;;5006328;28;20033;-79
2021/09/15 00:38:45;;;;;;;1068.47;965.40;;;;;;;;;;5007736;28;20087;-79
2021/09/15 00:41:11;;;;;;;1068.70;965.60;;;;;;;;;;5000150;28;20030;-78
2021/09/15 00:43:57;;;;;;;1059.65;957.17;;;;;;;;;;5009173;28;20098;-79
2021/09/15 00:46:23;;;;;;;1062.18;959.25;;;;;;;;;;5002638;28;20029;-79
2021/09/15 00:48:49;;;;;;;1059.28;956.75;;;;;;;;;;4994827;28;20560;-79
2021/09/15 00:51:15;;;;;;;1068.38;965.30;;;;;;;;;;5005395;28;20120;-79
2021/09/15 00:53:41;;;;;;;1067.20;964.42;;;;;;;;;;5005931;28;20464;-79
2021/09/15 00:56:07;;;;;;;1073.90;970.55;;;;;;;;;;5005483;28;20022;-79
2021/09/15 00:58:34;;;;;;;1061.57;958.90;;;;;;;;;;5008461;28;20029;-79
2021/09/15 01:01:00;;;;;;;1068.55;965.53;;;;;;;;;;5009515;28;20037;-79
2021/09/15 01:03:26;;;;;;;1075.32;972.17;;;;;;;;;;5007449;28;20385;-79
2021/09/15 01:05:52;;;;;;;1075.45;972.33;;;;;;;;;;5009360;28;20026;-79
2021/09/15 01:08:18;;;;;;;1080.82;977.13;;;;;;;;;;5001106;28;20014;-79
2021/09/15 01:10:44;;;;;;;1079.43;976.08;;;;;;;;;;5002200;28;20103;-79
2021/09/15 01:13:11;;;;;;;1077.43;974.10;;;;;;;;;;5006667;28;20099;-79
2021/09/15 01:15:37;;;;;;;1081.65;977.95;;;;;;;;;;4999123;28;20165;-78
2021/09/15 01:18:16;;;;;;;1077.72;974.15;;;;;;;;;;5012777;28;20125;-79
2021/09/15 01:20:42;;;;;;;1069.97;966.80;;;;;;;;;;5006693;28;20061;-79
2021/09/15 01:23:08;;;;;;;1067.07;964.30;;;;;;;;;;4997890;28;20026;-79
2021/09/15 01:25:34;;;;;;;1066.30;963.65;;;;;;;;;;5004916;28;20053;-79
2021/09/15 01:28:00;;;;;;;1070.35;967.30;;;;;;;;;;5003154;28;20242;-79
2021/09/15 01:30:26;;;;;;;1069.95;966.95;;;;;;;;;;4999272;28;20030;-79
2021/09/15 01:32:52;;;;;;;1070.40;967.38;;;;;;;;;;5001200;28;20563;-79
2021/09/15 01:35:18;;;;;;;1078.22;974.72;;;;;;;;;;5002229;28;20029;-79
2021/09/15 01:37:43;;;;;;;1074.05;970.85;;;;;;;;;;5001057;28;20018;-79
2021/09/15 01:40:10;;;;;;;1077.35;973.97;;;;;;;;;;5008046;28;20121;-79
2021/09/15 01:42:36;;;;;;;1074.75;971.67;;;;;;;;;;5000992;28;20076;-79
2021/09/15 01:45:04;;;;;;;1073.45;970.17;;;;;;;;;;4998031;28;20034;-79
2021/09/15 01:47:30;;;;;;;1070.72;967.13;;;;;;;;;;4999675;28;20462;-79
2021/09/15 01:49:56;;;;;;;1074.38;971.15;;;;;;;;;;5005836;28;20022;-78
2021/09/15 01:52:22;;;;;;;1075.75;972.25;;;;;;;;;;4997665;28;20095;-79
2021/09/15 01:54:47;;;;;;;1079.30;975.40;;;;;;;;;;5000416;28;20031;-79
2021/09/15 01:57:14;;;;;;;1076.05;972.65;;;;;;;;;;5001645;28;20026;-79
2021/09/15 01:59:40;;;;;;;1080.68;977.17;;;;;;;;;;5007575;28;20428;-79
2021/09/15 02:02:10;;;;;;;1079.30;975.72;;;;;;;;;;5006111;28;20022;-79
2021/09/15 02:04:36;;;;;;;;;;;;;;;;;;5006112;28;20465;-79
2021/09/15 02:07:02;;;;;;;1046.30;944.28;;;;;;;;;;5005605;28;19944;-78
2021/09/15 02:09:29;;;;;;;1061.55;959.00;;;;;;;;;;5006631;28;20037;-79
2021/09/15 02:11:55;;;;;;;1073.90;970.65;;;;;;;;;;5000636;28;20045;-79
2021/09/15 02:14:21;;;;;;;1076.15;972.85;;;;;;;;;;5007549;28;20077;-78
2021/09/15 02:16:47;;;;;;;1077.10;973.67;;;;;;;;;;5004758;28;20080;-79
2021/09/15 02:19:13;;;;;;;1075.68;972.47;;;;;;;;;;4999797;28;20513;-78
2021/09/15 02:21:39;;;;;;;1076.95;973.53;;;;;;;;;;5006180;28;20128;-79
2021/09/15 02:24:06;;;;;;;1077.10;973.80;;;;;;;;;;5004888;28;20542;-79
2021/09/15 02:26:32;;;;;;;1074.68;971.42;;;;;;;;;;4997520;28;20497;-79
2021/09/15 02:28:58;;;;;;;1077.28;973.67;;;;;;;;;;5005538;28;20441;-79
2021/09/15 02:31:24;;;;;;;1072.57;969.47;;;;;;;;;;5005836;28;20054;-78
2021/09/15 02:33:51;;;;;;;1071.32;968.22;;;;;;;;;;4997293;28;20046;-79
2021/09/15 02:36:17;;;;;;;1073.30;970.05;;;;;;;;;;4998280;28;20037;-79
2021/09/15 02:38:43;;;;;;;1071.10;967.95;;;;;;;;;;5006265;28;20030;-79
2021/09/15 02:41:09;;;;;;;1071.03;968.00;;;;;;;;;;4998940;28;20112;-79
2021/09/15 02:43:35;;;;;;;1083.65;979.75;;;;;;;;;;5004214;28;20357;-78
2021/09/15 02:46:01;;;;;;;1073.78;970.53;;;;;;;;;;5005356;28;20207;-79
2021/09/15 02:48:27;;;;;;;1075.20;971.97;;;;;;;;;;5002059;28;20025;-78
2021/09/15 02:50:53;;;;;;;1079.43;975.85;;;;;;;;;;5007516;28;20029;-78
2021/09/15 02:53:19;;;;;;;1077.18;973.83;;;;;;;;;;5005402;28;20064;-79
2021/09/15 02:55:45;;;;;;;1079.55;976.13;;;;;;;;;;4992498;28;20030;-79
2021/09/15 02:58:11;;;;;;;1083.22;979.22;;;;;;;;;;5013998;28;20057;-79
2021/09/15 03:00:37;;;;;;;1082.53;978.80;;;;;;;;;;5009044;28;20123;-79
2021/09/15 03:03:03;;;;;;;1079.45;975.95;;;;;;;;;;5001589;28;20030;-79
2021/09/15 03:05:31;;;;;;;1087.47;983.40;;;;;;;;;;5022908;28;20075;-79
2021/09/15 03:07:57;;;;;;;1076.60;973.17;;;;;;;;;;5004699;28;20108;-78
2021/09/15 03:10:23;;;;;;;1081.13;977.42;;;;;;;;;;5006555;28;20085;-78
2021/09/15 03:12:49;;;;;;;1072.80;969.65;;;;;;;;;;5008066;28;20129;-79
2021/09/15 03:15:15;;;;;;;1086.10;982.20;;;;;;;;;;5009200;28;20018;-78
2021/09/15 03:17:41;;;;;;;1082.72;978.92;;;;;;;;;;5008100;28;20034;-79
2021/09/15 03:20:07;;;;;;;1077.32;973.85;;;;;;;;;;5008161;28;20475;-78
2021/09/15 03:22:33;;;;;;;1085.60;981.60;;;;;;;;;;5002758;28;21064;-79
2021/09/15 03:24:59;;;;;;;1088.93;984.88;;;;;;;;;;5009028;28;20030;-79
2021/09/15 03:27:25;;;;;;;1092.82;988.47;;;;;;;;;;5005895;28;20496;-79
2021/09/15 03:29:52;;;;;;;1090.40;986.28;;;;;;;;;;5000208;28;20038;-79
2021/09/15 03:32:18;;;;;;;1081.75;978.15;;;;;;;;;;5002245;28;20030;-78
2021/09/15 03:34:43;;;;;;;1086.72;983.03;;;;;;;;;;5004649;28;20042;-79
2021/09/15 03:37:10;;;;;;;1086.15;982.35;;;;;;;;;;5008264;28;20033;-79
2021/09/15 03:39:36;;;;;;;1085.75;981.88;;;;;;;;;;5005565;28;20725;-79
2021/09/15 03:42:02;;;;;;;1084.30;980.60;;;;;;;;;;4998541;28;20045;-79
2021/09/15 03:44:28;;;;;;;1085.55;981.78;;;;;;;;;;5001556;28;20061;-78
2021/09/15 03:46:54;;;;;;;1081.75;978.20;;;;;;;;;;5005772;28;20050;-78
2021/09/15 03:49:20;;;;;;;1087.22;983.45;;;;;;;;;;4999536;28;20022;-78
2021/09/15 03:51:48;;;;;;;1088.90;984.80;;;;;;;;;;5005023;28;20418;-78
2021/09/15 03:54:14;;;;;;;1093.53;989.22;;;;;;;;;;5003537;28;20196;-79
2021/09/15 03:56:40;;;;;;;1082.38;978.85;;;;;;;;;;5001908;28;20040;-79
2021/09/15 03:59:06;;;;;;;1086.00;982.33;;;;;;;;;;5008391;28;20037;-79
2021/09/15 04:01:32;;;;;;;1083.07;979.35;;;;;;;;;;5002909;28;20141;-79
2021/09/15 04:03:58;;;;;;;1084.32;979.65;;;;;;;;;;5004528;28;20116;-78
2021/09/15 04:06:24;;;;;;;1090.10;986.13;;;;;;;;;;5011896;28;20027;-78
2021/09/15 04:08:50;;;;;;;1090.05;986.25;;;;;;;;;;5013221;28;20356;-79
2021/09/15 04:11:16;;;;;;;1091.00;986.97;;;;;;;;;;5007308;28;20049;-79
2021/09/15 04:13:42;;;;;;;1083.13;979.42;;;;;;;;;;5006899;28;20029;-79
2021/09/15 04:16:08;;;;;;;1083.68;980.08;;;;;;;;;;4999623;28;20331;-79
2021/09/15 04:18:34;;;;;;;1080.95;977.45;;;;;;;;;;5002073;28;20025;-79
2021/09/15 04:21:00;;;;;;;1086.82;982.95;;;;;;;;;;5005632;28;20028;-79
2021/09/15 04:31:23;;;;;;;1077.63;974.13;;;;;;;;;;4999699;28;20117;-79
2021/09/15 04:33:49;;;;;;;1084.75;981.17;;;;;;;;;;5004451;28;20043;-78
2021/09/15 04:36:15;;;;;;;1073.75;970.45;;;;;;;;;;5007153;28;20026;-79
2021/09/15 04:38:41;;;;;;;1076.97;973.70;;;;;;;;;;4998566;28;20060;-79
2021/09/15 04:41:07;;;;;;;1091.88;987.58;;;;;;;;;;5002966;28;20028;-78
2021/09/15 04:43:33;;;;;;;1095.00;990.65;;;;;;;;;;5003993;28;20397;-79
2021/09/15 04:46:00;;;;;;;1088.45;984.58;;;;;;;;;;5003691;28;20417;-78
2021/09/15 04:48:26;;;;;;;1080.80;977.13;;;;;;;;;;5003165;28;20041;-79
2021/09/15 04:50:52;;;;;;;1085.47;981.70;;;;;;;;;;5002994;28;20386;-79
2021/09/15 04:53:18;;;;;;;1079.80;976.30;;;;;;;;;;5003719;28;20030;-79
2021/09/15 04:55:44;;;;;;;1083.68;979.95;;;;;;;;;;5001731;28;20477;-79
2021/09/15 04:58:10;;;;;;;1085.70;981.45;;;;;;;;;;5004937;28;20076;-79
2021/09/15 05:00:36;;;;;;;1088.88;984.75;;;;;;;;;;5006893;28;20029;-79
2021/09/15 05:03:01;;;;;;;1085.20;981.40;;;;;;;;;;5005371;28;20046;-78
2021/09/15 05:05:27;;;;;;;1089.25;985.20;;;;;;;;;;4997631;28;20027;-79
2021/09/15 05:07:53;;;;;;;1076.35;973.03;;;;;;;;;;5007533;28;20030;-80
2021/09/15 05:10:24;;;;;;;1084.25;980.40;;;;;;;;;;5007173;28;20025;-79
2021/09/15 05:12:51;;;;;;;1084.70;980.83;;;;;;;;;;5005614;28;20022;-79
2021/09/15 05:15:17;;;;;;;1086.22;982.05;;;;;;;;;;5008977;28;20083;-79
2021/09/15 05:17:43;;;;;;;1090.88;986.35;;;;;;;;;;5004309;28;20029;-79
2021/09/15 05:20:09;;;;;;;1083.00;979.33;;;;;;;;;;4998897;28;20363;-79
2021/09/15 05:22:35;;;;;;;1093.72;987.95;;;;;;;;;;5003616;28;20092;-79
2021/09/15 05:25:01;;;;;;;1092.18;987.90;;;;;;;;;;5007636;28;20530;-79
2021/09/15 05:27:27;;;;;;;1082.32;978.67;;;;;;;;;;4993737;28;20358;-79
2021/09/15 05:29:53;;;;;;;1086.15;982.25;;;;;;;;;;4999724;28;20430;-78
2021/09/15 05:32:22;;;;;;;1083.47;979.67;;;;;;;;;;5005687;28;20034;-78
2021/09/15 05:34:48;;;;;;;1079.25;975.15;;;;;;;;;;4997232;28;20049;-78
2021/09/15 05:37:14;;;;;;;1079.78;976.20;;;;;;;;;;4996080;28;20026;-78
2021/09/15 05:39:40;;;;;;;1080.88;977.20;;;;;;;;;;4999783;28;20028;-78
2021/09/15 05:42:06;;;;;;;1074.13;970.85;;;;;;;;;;5023490;28;20064;-78
2021/09/15 05:44:32;;;;;;;1080.78;977.00;;;;;;;;;;4996179;28;20401;-78
2021/09/15 05:46:58;;;;;;;1080.82;976.70;;;;;;;;;;5006363;28;20124;-78
2021/09/15 05:49:24;;;;;;;1077.70;974.17;;;;;;;;;;5015225;28;20030;-78
2021/09/15 05:51:50;;;;;;;1083.90;980.13;;;;;;;;;;4996612;28;20026;-78
2021/09/15 05:54:15;;;;;;;1081.45;977.70;;;;;;;;;;5005532;28;20318;-78
2021/09/15 05:56:42;;;;;;;1077.13;973.75;;;;;;;;;;5003871;28;20455;-78
2021/09/15 05:59:08;;;;;;;1081.60;977.88;;;;;;;;;;4998573;28;20161;-78
2021/09/15 06:01:34;;;;;;;1086.68;982.72;;;;;;;;;;5004467;28;20426;-78
2021/09/15 06:04:00;;;;;;;1083.93;980.33;;;;;;;;;;5005935;28;20112;-77
2021/09/15 06:06:26;;;;;;;1094.57;990.25;;;;;;;;;;5002796;28;20034;-77
2021/09/15 06:08:52;;;;;;;1089.38;985.47;;;;;;;;;;5005765;28;20671;-77
2021/09/15 06:11:19;;;;;;;1093.13;988.85;;;;;;;;;;5002081;28;20108;-77
2021/09/15 06:13:45;;;;;;;1093.90;989.63;;;;;;;;;;5002213;28;20397;-77
2021/09/15 06:16:11;;;;;;;1087.35;983.40;;;;;;;;;;5001963;28;20026;-76
2021/09/15 06:18:37;;;;;;;1085.40;981.75;;;;;;;;;;5001403;28;20050;-76
2021/09/15 06:21:03;;;;;;;1089.68;985.80;;;;;;;;;;5000255;28;20108;-76
2021/09/15 06:23:31;;;;;;;1095.40;991.33;;;;;;;;;;5014973;28;20026;-77
2021/09/15 06:25:59;;;;;;;1091.88;987.88;;;;;;;;;;5001684;28;20081;-76
2021/09/15 06:28:26;;;;;;;1099.57;994.65;;;;;;;;;;5008395;28;20117;-77
2021/09/15 06:30:52;;;;;;;1097.78;993.42;;;;;;;;;;5004309;28;20030;-77
2021/09/15 06:33:18;;;;;;;1097.35;992.85;;;;;;;;;;5007399;28;20058;-76
2021/09/15 06:35:44;;;;;;;1100.13;995.05;;;;;;;;;;5008942;28;20029;-76
2021/09/15 06:38:11;;;;;;;1090.90;986.88;;;;;;;;;;5011114;28;20033;-76
2021/09/15 06:40:38;;;;;;;1090.57;986.70;;;;;;;;;;5006345;28;20069;-77
2021/09/15 06:43:03;;;;;;;1092.63;988.65;;;;;;;;;;5009519;28;20112;-77
2021/09/15 06:45:29;;;;;;;1097.03;992.45;;;;;;;;;;5006732;28;20184;-76
2021/09/15 06:47:55;;;;;;;1094.95;990.53;;;;;;;;;;5007763;28;20026;-76
2021/09/15 06:50:21;;;;;;;1103.20;996.85;;;;;;;;;;5000356;28;20034;-76
2021/09/15 06:52:48;;;;;;;1092.38;988.10;;;;;;;;;;4996743;28;20026;-77
2021/09/15 06:55:14;;;;;;;1093.72;989.22;;;;;;;;;;5001533;28;20100;-76
2021/09/15 06:57:40;;;;;;;1100.05;994.85;;;;;;;;;;4999222;28;20030;-76
2021/09/15 07:00:07;;;;;;;1099.30;994.35;;;;;;;;;;5001615;28;20022;-77
2021/09/15 07:02:33;;;;;;;1094.57;990.00;;;;;;;;;;5014067;28;20041;-74
2021/09/15 07:04:59;;;;;;;1086.75;982.60;;;;;;;;;;5008659;28;20540;-75
2021/09/15 07:07:25;;;;;;;1092.80;988.30;;;;;;;;;;5005445;28;20033;-77
2021/09/15 07:09:51;;;;;;;1089.93;985.88;;;;;;;;;;5012516;28;20041;-76
2021/09/15 07:12:17;;;;;;;1088.50;984.40;;;;;;;;;;5012520;28;20129;-77
2021/09/15 07:14:43;;;;;;;1090.43;985.97;;;;;;;;;;5005087;28;20141;-77
2021/09/15 07:17:09;;;;;;;1086.72;982.78;;;;;;;;;;5008442;28;20322;-77
2021/09/15 07:19:35;;;;;;;1089.82;985.55;;;;;;;;;;4999985;28;20367;-77
2021/09/15 07:22:01;;;;;;;1087.15;982.78;;;;;;;;;;4995930;28;20351;-77
2021/09/15 07:24:27;;;;;;;1092.95;988.28;;;;;;;;;;4990508;28;20042;-77
2021/09/15 07:26:54;;;;;;;1093.88;989.53;;;;;;;;;;5007053;28;20127;-77
2021/09/15 07:29:20;;;;;;;1094.72;990.25;;;;;;;;;;5005023;28;20026;-77
2021/09/15 07:31:47;;;;;;;1097.20;992.78;;;;;;;;;;5000565;28;20045;-77
2021/09/15 07:34:14;;;;;;;1095.30;990.90;;;;;;;;;;5002063;28;20026;-77
2021/09/15 07:36:40;;;;;;;1091.43;986.97;;;;;;;;;;5004151;28;20018;-77
2021/09/15 07:39:07;;;;;;;1108.22;999.03;;;;;;;;;;5003475;28;20030;-77
2021/09/15 07:41:33;;;;;;;1100.22;994.78;;;;;;;;;;5003110;28;20034;-78
2021/09/15 07:43:59;;;;;;;1097.57;993.03;;;;;;;;;;4995099;28;20089;-78
2021/09/15 07:46:25;;;;;;;1101.90;996.03;;;;;;;;;;4999026;28;20037;-77
2021/09/15 07:48:52;;;;;;;1110.47;999.55;;;;;;;;;;4996573;28;20049;-78
2021/09/15 07:51:19;;;;;;;1098.40;993.42;;;;;;;;;;5003720;28;20076;-77
2021/09/15 07:53:46;;;;;;;1105.22;997.42;;;;;;;;;;5007672;28;20409;-77
2021/09/15 07:56:12;;;;;;;1102.03;996.47;;;;;;;;;;5001560;28;20057;-78
2021/09/15 07:58:41;;;;;;;1110.82;999.90;;;;;;;;;;5001517;28;20453;-77
2021/09/15 08:01:07;;;;;;;1107.63;998.85;;;;;;;;;;5017039;28;20537;-77
2021/09/15 08:03:33;;;;;;;1113.55;999.90;;;;;;;;;;5006183;28;20030;-78
2021/09/15 08:06:01;;;;;;;1112.05;999.85;;;;;;;;;;5004809;28;20084;-78
2021/09/15 08:08:27;;;;;;;1108.55;999.50;;;;;;;;;;5004374;28;20497;-78
2021/09/15 08:10:54;;;;;;;1115.15;999.90;;;;;;;;;;4998239;28;20038;-78
2021/09/15 08:13:20;;;;;;;1123.97;999.90;;;;;;;;;;4999496;28;20129;-79
2021/09/15 08:15:47;;;;;;;1115.80;999.90;;;;;;;;;;5007629;28;20080;-78
2021/09/15 08:18:13;;;;;;;1116.65;999.90;;;;;;;;;;4996123;28;20519;-77
2021/09/15 08:20:45;;;;;;;1126.47;999.90;;;;;;;;;;4994974;28;20246;-77
2021/09/15 08:23:11;;;;;;;1126.05;999.90;;;;;;;;;;5002126;28;20121;-77
2021/09/15 08:25:37;;;;;;;1129.63;999.90;;;;;;;;;;4996842;28;20038;-78
2021/09/15 08:28:04;;;;;;;1120.68;999.90;;;;;;;;;;5003239;28;20501;-78
2021/09/15 08:30:30;;;;;;;1115.40;999.90;;;;;;;;;;5003122;28;20034;-78
2021/09/15 08:32:56;;;;;;;1120.30;999.90;;;;;;;;;;5000555;28;20489;-78
2021/09/15 08:35:22;;;;;;;1130.07;999.90;;;;;;;;;;5013544;28;20030;-76
2021/09/15 08:37:49;;;;;;;1130.65;999.90;;;;;;;;;;5000485;28;20022;-77
2021/09/15 08:40:16;;;;;;;1130.80;999.90;;;;;;;;;;5002837;28;20487;-79
2021/09/15 08:42:42;;;;;;;1131.05;999.90;;;;;;;;;;5002747;28;20462;-79
2021/09/15 08:45:09;;;;;;;1136.30;999.90;;;;;;;;;;5000959;28;20068;-78
2021/09/15 08:47:37;;;;;;;1134.55;999.90;;;;;;;;;;5009749;28;20034;-79
2021/09/15 08:50:03;;;;;;;1132.15;999.90;;;;;;;;;;4999706;28;20088;-77
2021/09/15 08:52:29;;;;;;;1134.00;999.90;;;;;;;;;;4997963;28;20092;-78
2021/09/15 08:54:55;;;;;;;1140.70;999.90;;;;;;;;;;4999194;28;20474;-78
2021/09/15 08:57:21;;;;;;;1144.72;999.90;;;;;;;;;;5000705;28;20454;-78
2021/09/15 08:59:47;;;;;;;1144.03;999.90;;;;;;;;;;5006132;28;20053;-78
2021/09/15 09:02:13;;;;;;;1141.18;999.90;;;;;;;;;;5004030;28;20429;-78
2021/09/15 09:04:50;;;;;;;1143.28;999.90;;;;;;;;;;5001291;28;20041;-79
2021/09/15 09:07:16;;;;;;;1143.05;999.90;;;;;;;;;;5003206;28;20121;-78
2021/09/15 09:09:45;;;;;;;1135.68;999.90;;;;;;;;;;4999631;28;20446;-78
2021/09/15 09:12:12;;;;;;;1138.57;999.90;;;;;;;;;;5001393;28;20050;-78
2021/09/15 09:14:38;;;;;;;1150.55;999.90;;;;;;;;;;5002685;28;20117;-79
2021/09/15 09:17:03;;;;;;;1136.15;999.90;;;;;;;;;;5000435;28;20129;-79
2021/09/15 09:19:29;;;;;;;1142.75;999.90;;;;;;;;;;4999873;28;20022;-80
2021/09/15 09:21:56;;;;;;;1138.88;999.90;;;;;;;;;;5005410;28;20029;-78
2021/09/15 09:24:26;;;;;;;1137.47;999.90;;;;;;;;;;5003387;28;20060;-79
2021/09/15 09:27:02;;;;;;;1143.95;999.90;;;;;;;;;;5002004;28;20072;-79
2021/09/15 09:29:29;;;;;;;1148.13;999.90;;;;;;;;;;5005307;28;20494;-80
2021/09/15 09:31:55;;;;;;;1144.25;999.90;;;;;;;;;;5005724;28;20061;-80
2021/09/15 09:34:24;;;;;;;1145.68;999.90;;;;;;;;;;4995544;28;20076;-81
2021/09/15 09:37:00;;;;;;;1152.18;999.90;;;;;;;;;;5004349;28;20076;-80
2021/09/15 09:39:43;;;;;;;1146.97;999.90;;;;;;;;;;5005664;28;20068;-81
2021/09/15 09:42:27;;;;;;;1142.43;999.90;;;;;;;;;;5004422;28;20417;-80
2021/09/15 09:44:53;;;;;;;1144.28;999.90;;;;;;;;;;5005223;28;20025;-78
2021/09/15 09:47:19;;;;;;;1149.18;999.90;;;;;;;;;;5002679;28;20044;-79
2021/09/15 09:50:03;;;;;;;1151.38;999.90;;;;;;;;;;5006421;28;20026;-77
2021/09/15 09:52:29;;;;;;;1140.63;999.90;;;;;;;;;;5008299;28;20030;-78
2021/09/15 09:54:58;;;;;;;1146.40;999.90;;;;;;;;;;5012552;28;20129;-79
2021/09/15 09:57:25;;;;;;;1146.20;999.90;;;;;;;;;;5009490;28;20065;-79
2021/09/15 09:59:51;;;;;;;1147.20;999.90;;;;;;;;;;5013533;28;20032;-80
2021/09/15 10:02:18;;;;;;;1143.30;999.90;;;;;;;;;;5008961;28;20124;-81
2021/09/15 10:04:44;;;;;;;1151.45;999.90;;;;;;;;;;5012634;28;20061;-79
2021/09/15 10:07:12;;;;;;;1146.35;999.90;;;;;;;;;;5009815;28;20037;-78
2021/09/15 10:09:40;;;;;;;1147.57;999.90;;;;;;;;;;5020136;28;20029;-78
2021/09/15 10:12:07;;;;;;;1141.32;999.90;;;;;;;;;;5011552;28;20612;-79
2021/09/15 10:14:34;;;;;;;1152.70;999.90;;;;;;;;;;5008593;28;20108;-79
2021/09/15 10:17:12;;;;;;;1145.07;999.90;;;;;;;;;;5014473;28;20022;-79
2021/09/15 10:19:39;;;;;;;1138.65;999.90;;;;;;;;;;5010077;28;20018;-79
2021/09/15 10:22:06;;;;;;;1141.15;999.90;;;;;;;;;;5030523;28;20022;-79
2021/09/15 10:24:48;;;;;;;1139.50;999.90;;;;;;;;;;5012066;28;20116;-79
2021/09/15 10:27:15;;;;;;;1141.57;999.90;;;;;;;;;;5013050;28;20022;-78
2021/09/15 10:29:42;;;;;;;1137.53;999.90;;;;;;;;;;5014359;28;20037;-78
2021/09/15 10:32:12;;;;;;;1139.15;999.90;;;;;;;;;;5015829;28;20382;-78
2021/09/15 10:34:38;;;;;;;1141.88;999.90;;;;;;;;;;5011070;28;20053;-78
2021/09/15 10:37:13;;;;;;;1149.30;999.90;;;;;;;;;;5013242;28;20090;-78
2021/09/15 10:39:54;;;;;;;1147.50;999.90;;;;;;;;;;5026191;28;20044;-78
2021/09/15 10:42:53;;;;;;;1147.22;999.90;;;;;;;;;;5012162;28;20478;-79
2021/09/15 10:45:37;;;;;;;1146.20;999.90;;;;;;;;;;4965891;28;20046;-78
2021/09/15 10:48:09;;;;;;;1153.22;999.90;;;;;;;;;;5009448;28;20022;-78
2021/09/15 10:50:40;;;;;;;1168.82;999.90;;;;;;;;;;5009492;28;20026;-78
2021/09/15 10:53:12;;;;;;;1162.70;999.90;;;;;;;;;;5013580;28;20160;-80
2021/09/15 10:55:45;;;;;;;1164.13;999.90;;;;;;;;;;5011746;28;20026;-80
2021/09/15 10:58:13;;;;;;;1167.40;999.90;;;;;;;;;;5012484;28;20025;-80
2021/09/15 11:00:57;;;;;;;1166.55;999.90;;;;;;;;;;5011229;28;20034;-79
2021/09/15 11:03:50;;;;;;;1165.45;999.90;;;;;;;;;;5013934;28;20048;-79
2021/09/15 11:06:19;;;;;;;1165.65;999.90;;;;;;;;;;5006022;28;20961;-79
2021/09/15 11:08:47;;;;;;;1174.93;999.90;;;;;;;;;;5040380;28;20030;-80
2021/09/15 11:11:19;;;;;;;1161.88;999.90;;;;;;;;;;5015322;28;20076;-78
2021/09/15 11:13:51;;;;;;;1174.32;999.90;;;;;;;;;;5006755;28;20066;-79
2021/09/15 11:16:24;;;;;;;1166.55;999.90;;;;;;;;;;5013572;28;20477;-79
2021/09/15 11:18:56;;;;;;;1162.45;999.90;;;;;;;;;;5026051;28;20026;-79
2021/09/15 11:21:22;;;;;;;1168.88;999.90;;;;;;;;;;5010389;28;20029;-80
2021/09/15 11:23:52;;;;;;;1174.68;999.90;;;;;;;;;;5014087;28;20092;-79
2021/09/15 11:26:33;;;;;;;1168.50;999.90;;;;;;;;;;5012248;28;20021;-79
2021/09/15 11:29:00;;;;;;;1174.00;999.90;;;;;;;;;;5009622;28;20025;-78
2021/09/15 11:31:26;;;;;;;1165.28;999.90;;;;;;;;;;5013787;28;20030;-78
2021/09/15 11:34:03;;;;;;;1173.45;999.90;;;;;;;;;;5009388;28;20055;-79
2021/09/15 11:36:28;;;;;;;1172.22;999.90;;;;;;;;;;5006347;28;20580;-80
2021/09/15 11:38:54;;;;;;;1169.95;999.90;;;;;;;;;;5006795;28;20119;-78
2021/09/15 11:41:21;;;;;;;1166.15;999.90;;;;;;;;;;5007538;28;20022;-79
2021/09/15 11:43:48;;;;;;;1166.97;999.90;;;;;;;;;;4997811;28;20570;-79
2021/09/15 11:46:15;;;;;;;1164.85;999.90;;;;;;;;;;5008093;28;20101;-79
2021/09/15 11:48:41;;;;;;;1165.85;999.90;;;;;;;;;;5005995;28;20026;-78
2021/09/15 11:51:18;;;;;;;1164.15;999.90;;;;;;;;;;5007029;28;20209;-78
2021/09/15 11:54:05;;;;;;;1168.13;999.90;;;;;;;;;;5021502;28;20554;-77
2021/09/15 11:56:36;;;;;;;1161.43;999.90;;;;;;;;;;5005447;28;20022;-78
2021/09/15 11:59:03;;;;;;;1158.50;999.90;;;;;;;;;;5003584;28;20022;-77
2021/09/15 12:01:30;;;;;;;1168.82;999.90;;;;;;;;;;5006795;28;20038;-78
2021/09/15 12:03:57;;;;;;;1163.35;999.90;;;;;;;;;;5009081;28;20026;-79
2021/09/15 12:06:24;;;;;;;1168.88;999.90;;;;;;;;;;5003305;28;20390;-79
2021/09/15 12:08:50;;;;;;;1177.95;999.90;;;;;;;;;;5001074;28;20535;-78
2021/09/15 12:11:17;;;;;;;1171.32;999.90;;;;;;;;;;5003107;28;20132;-79
2021/09/15 12:13:43;;;;;;;1167.78;999.90;;;;;;;;;;5004629;28;20030;-78
2021/09/15 12:16:09;;;;;;;1172.40;999.90;;;;;;;;;;5004003;28;20037;-78
2021/09/15 12:18:42;;;;;;;1169.93;999.90;;;;;;;;;;5012089;28;20034;-78
2021/09/15 12:21:15;;;;;;;1173.72;999.90;;;;;;;;;;5028492;28;20173;-77
2021/09/15 12:23:42;;;;;;;1169.32;999.90;;;;;;;;;;5008974;28;20033;-78
2021/09/15 12:26:08;;;;;;;1171.32;999.90;;;;;;;;;;5010424;28;20040;-77
2021/09/15 12:28:34;;;;;;;1165.15;999.90;;;;;;;;;;5012715;28;20109;-79
2021/09/15 12:31:01;;;;;;;1172.50;999.90;;;;;;;;;;5007187;28;20136;-79
2021/09/15 12:33:28;;;;;;;1174.65;999.90;;;;;;;;;;5006115;28;20034;-80
2021/09/15 12:36:27;;;;;;;1174.50;999.90;;;;;;;;;;5012651;28;20026;-79
2021/09/15 12:38:57;;;;;;;1177.82;999.90;;;;;;;;;;4977357;28;20740;-79
2021/09/15 12:41:23;;;;;;;1177.93;999.90;;;;;;;;;;5011474;28;20462;-80
2021/09/15 12:43:49;;;;;;;1191.53;999.90;;;;;;;;;;5007504;28;20037;-79
2021/09/15 12:46:23;;;;;;;1195.50;999.90;;;;;;;;;;5005773;28;20029;-79
2021/09/15 12:48:49;;;;;;;1198.20;999.90;;;;;;;;;;5008468;28;20029;-79
2021/09/15 12:51:19;;;;;;;1200.03;999.90;;;;;;;;;;5041496;28;20018;-80
2021/09/15 12:53:46;;;;;;;1199.15;999.90;;;;;;;;;;5009068;28;20029;-80
2021/09/15 12:56:12;;;;;;;1201.72;999.90;;;;;;;;;;5009577;28;20021;-81
2021/09/15 12:58:38;;;;;;;1191.35;999.90;;;;;;;;;;5010939;28;20480;-80
2021/09/15 13:01:06;;;;;;;1202.90;999.90;;;;;;;;;;5011222;28;20026;-79
2021/09/15 13:03:55;;;;;;;1202.20;999.90;;;;;;;;;;5009718;28;20022;-82
2021/09/15 13:06:22;;;;;;;1190.78;999.90;;;;;;;;;;5012508;28;20032;-80
2021/09/15 13:08:49;;;;;;;1191.88;999.90;;;;;;;;;;5018643;28;20026;-80
2021/09/15 13:11:15;;;;;;;1188.15;999.90;;;;;;;;;;5011426;28;20048;-78
2021/09/15 13:13:41;;;;;;;1185.00;999.90;;;;;;;;;;5007871;28;20545;-81
2021/09/15 13:16:07;;;;;;;1191.63;999.90;;;;;;;;;;5019906;28;20496;-81
2021/09/15 13:18:33;;;;;;;1186.13;999.90;;;;;;;;;;5010699;28;20022;-80
2021/09/15 13:20:59;;;;;;;1179.55;999.90;;;;;;;;;;5005330;28;20112;-79
2021/09/15 13:23:25;;;;;;;1177.55;999.90;;;;;;;;;;5009920;28;20037;-81
2021/09/15 13:25:51;;;;;;;1185.20;999.90;;;;;;;;;;5000412;28;20060;-81
2021/09/15 13:28:17;;;;;;;1184.25;999.90;;;;;;;;;;5006592;28;21066;-80
2021/09/15 13:30:43;;;;;;;1183.90;999.90;;;;;;;;;;4999544;28;20037;-82
2021/09/15 13:33:09;;;;;;;1177.32;999.90;;;;;;;;;;5004950;28;20040;-81
2021/09/15 13:35:35;;;;;;;1181.85;999.90;;;;;;;;;;5007883;28;20041;-81
2021/09/15 13:38:02;;;;;;;1187.65;999.90;;;;;;;;;;5036697;28;20026;-80
2021/09/15 13:40:27;;;;;;;1179.70;999.90;;;;;;;;;;5006305;28;20188;-80
2021/09/15 13:42:55;;;;;;;1178.68;999.90;;;;;;;;;;5023556;28;20105;-80
2021/09/15 13:45:21;;;;;;;1174.63;999.90;;;;;;;;;;5008932;28;20390;-81
2021/09/15 13:47:47;;;;;;;1184.75;999.90;;;;;;;;;;5009029;28;20040;-82
2021/09/15 13:50:13;;;;;;;1174.85;999.90;;;;;;;;;;5008886;28;20500;-82
2021/09/15 13:52:40;;;;;;;1165.20;999.90;;;;;;;;;;5006623;28;20030;-80